地図

経路データ

SID SEASON NUMBER BASIN SUBBASIN NAME ISO_TIME NATURE LAT LON WMO_WIND WMO_PRES WMO_AGENCY TRACK_TYPE DIST2LAND LANDFALL IFLAG USA_AGENCY USA_ATCF_ID USA_LAT USA_LON USA_RECORD USA_STATUS USA_WIND USA_PRES USA_SSHS USA_R34_NE USA_R34_SE USA_R34_SW USA_R34_NW USA_R50_NE USA_R50_SE USA_R50_SW USA_R50_NW USA_R64_NE USA_R64_SE USA_R64_SW USA_R64_NW USA_POCI USA_ROCI USA_RMW USA_EYE TOKYO_LAT TOKYO_LON TOKYO_GRADE TOKYO_WIND TOKYO_PRES TOKYO_R50_DIR TOKYO_R50_LONG TOKYO_R50_SHORT TOKYO_R30_DIR TOKYO_R30_LONG TOKYO_R30_SHORT TOKYO_LAND CMA_LAT CMA_LON CMA_CAT CMA_WIND CMA_PRES HKO_LAT HKO_LON HKO_CAT HKO_WIND HKO_PRES NEWDELHI_LAT NEWDELHI_LON NEWDELHI_GRADE NEWDELHI_WIND NEWDELHI_PRES NEWDELHI_CI NEWDELHI_DP NEWDELHI_POCI REUNION_LAT REUNION_LON REUNION_TYPE REUNION_WIND REUNION_PRES REUNION_TNUM REUNION_CI REUNION_RMW REUNION_R34_NE REUNION_R34_SE REUNION_R34_SW REUNION_R34_NW REUNION_R50_NE REUNION_R50_SE REUNION_R50_SW REUNION_R50_NW REUNION_R64_NE REUNION_R64_SE REUNION_R64_SW REUNION_R64_NW BOM_LAT BOM_LON BOM_TYPE BOM_WIND BOM_PRES BOM_TNUM BOM_CI BOM_RMW BOM_R34_NE BOM_R34_SE BOM_R34_SW BOM_R34_NW BOM_R50_NE BOM_R50_SE BOM_R50_SW BOM_R50_NW BOM_R64_NE BOM_R64_SE BOM_R64_SW BOM_R64_NW BOM_ROCI BOM_POCI BOM_EYE BOM_POS_METHOD BOM_PRES_METHOD NADI_LAT NADI_LON NADI_CAT NADI_WIND NADI_PRES WELLINGTON_LAT WELLINGTON_LON WELLINGTON_WIND WELLINGTON_PRES DS824_LAT DS824_LON DS824_STAGE DS824_WIND DS824_PRES TD9636_LAT TD9636_LON TD9636_STAGE TD9636_WIND TD9636_PRES TD9635_LAT TD9635_LON TD9635_WIND TD9635_PRES TD9635_ROCI NEUMANN_LAT NEUMANN_LON NEUMANN_CLASS NEUMANN_WIND NEUMANN_PRES MLC_LAT MLC_LON MLC_CLASS MLC_WIND MLC_PRES USA_GUST BOM_GUST BOM_GUST_PER REUNION_GUST REUNION_GUST_PER USA_SEAHGT USA_SEARAD_NE USA_SEARAD_SE USA_SEARAD_SW USA_SEARAD_NW STORM_SPEED STORM_DIR
1971207N22089 1971 81 NI BB NOT_NAMED 1971-07-26 03:00:00 NR 22.0000 88.6000 main 0 0 __________O___ -1 22.0000 88.6000 1 12 300
1971207N22089 1971 81 NI BB NOT_NAMED 1971-07-26 06:00:00 TS 22.3056 88.0285 main 0 0 O________OP___ jtwc_io IO061971 22.3000 88.0000 -1 22.3000 88.0000 TC 25 22.3112 88.0571 1 12 301
1971207N22089 1971 81 NI BB NOT_NAMED 1971-07-26 09:00:00 TS 22.6119 87.4961 main 0 0 P________PP___ IO061971 22.6155 87.4706 -1 22.6155 87.4706 TC 25 22.6071 87.5302 1 11 302
1971207N22089 1971 81 NI BB NOT_NAMED 1971-07-26 12:00:00 TS 22.8898 87.0152 main 0 0 O________OP___ jtwc_io IO061971 22.9000 87.0000 -1 22.9000 87.0000 TC 25 22.8744 87.0381 1 10 302
1971207N22089 1971 81 NI BB NOT_NAMED 1971-07-26 15:00:00 TS 23.1198 86.6182 main 0 0 P________PO___ IO061971 23.1297 86.6273 -1 23.1297 86.6273 TC 25 23.1000 86.6000 1 8 301
1971207N22089 1971 81 NI BB NOT_NAMED 1971-07-26 18:00:00 TS 23.2918 86.2759 main 0 0 O________OP___ jtwc_io IO061971 23.3000 86.3000 -1 23.3000 86.3000 TC 25 23.2753 86.2278 1 7 295
1971207N22089 1971 81 NI BB NOT_NAMED 1971-07-26 21:00:00 TS 23.4129 85.9295 main 0 0 P________PP___ IO061971 23.4150 85.9424 -1 23.4150 85.9424 TC 25 23.4088 85.9038 1 7 289
1971207N22089 1971 81 NI BB NOT_NAMED 1971-07-27 00:00:00 TS 23.5043 85.6010 main 0 0 O________OP___ jtwc_io IO061971 23.5000 85.6000 -1 23.5000 85.6000 TC 25 23.5130 85.6030 1 6 288
1971207N22089 1971 81 NI BB NOT_NAMED 1971-07-27 03:00:00 TS 23.6049 85.3000 main 0 0 P________PO___ IO061971 23.6074 85.3000 -1 23.6074 85.3000 TC 25 23.6000 85.3000 1 6 289
1971207N22089 1971 81 NI BB NOT_NAMED 1971-07-27 06:00:00 TS 23.6977 84.9870 main 0 0 O________OP___ jtwc_io IO061971 23.7000 85.0000 -1 23.7000 85.0000 TC 25 23.6932 84.9610 1 6 284
1971207N22089 1971 81 NI BB NOT_NAMED 1971-07-27 09:00:00 TS 23.7573 84.6482 main 0 0 P________PP___ IO061971 23.7499 84.6649 -1 23.7499 84.6649 TC 25 23.7722 84.6147 1 7 280
1971207N22089 1971 81 NI BB NOT_NAMED 1971-07-27 12:00:00 TS 23.8133 84.2870 main 0 0 O________OP___ jtwc_io IO061971 23.8000 84.3000 -1 23.8000 84.3000 TC 25 23.8401 84.2611 1 7 282
1971207N22089 1971 81 NI BB NOT_NAMED 1971-07-27 15:00:00 TS 23.9050 83.9001 main 0 0 P________PO___ IO061971 23.9075 83.9002 -1 23.9075 83.9002 TC 25 23.9000 83.9000 1 7 284
1971207N22089 1971 81 NI BB NOT_NAMED 1971-07-27 18:00:00 TS 23.9836 83.5389 main 0 0 O________OP___ jtwc_io IO061971 24.0000 83.5000 -1 24.0000 83.5000 TC 25 23.9509 83.6168 1 6 279
1971207N22089 1971 81 NI BB NOT_NAMED 1971-07-27 21:00:00 TS 23.9985 83.2194 main 0 0 P________PP___ IO061971 23.9996 83.1722 -1 23.9996 83.1722 TC 25 23.9963 83.3139 1 6 273
1971207N22089 1971 81 NI BB NOT_NAMED 1971-07-28 00:00:00 TS 24.0146 82.8430 main 0 0 O________OP___ jtwc_io IO061971 24.0000 82.8000 -1 24.0000 82.8000 TC 25 24.0437 82.9291 1 8 277
1971207N22089 1971 81 NI BB NOT_NAMED 1971-07-28 03:00:00 TS 24.0942 82.3750 main 0 0 P________PO___ IO061971 24.0914 82.3625 -1 24.0914 82.3625 TC 25 24.1000 82.4000 1 11 279
1971207N22089 1971 81 NI BB NOT_NAMED 1971-07-28 06:00:00 TS 24.1935 81.6569 main 0 0 O________OP___ jtwc_io IO061971 24.2000 81.7000 -1 24.2000 81.7000 TC 25 24.1805 81.5707 1 16 276
1971207N22089 1971 81 NI BB NOT_NAMED 1971-07-28 09:00:00 TS 24.2612 80.6029 main 0 0 P________PP___ IO061971 24.2597 80.6000 -1 24.2597 80.6000 TC 25 24.2642 80.6087 1 19 274
1971207N22089 1971 81 NI BB NOT_NAMED 1971-07-28 12:00:00 TS 24.3133 79.5474 main 0 0 O________OP___ jtwc_io IO061971 24.3000 79.5000 -1 24.3000 79.5000 TC 25 24.3399 79.6423 1 16 274
1971207N22089 1971 81 NI BB NOT_NAMED 1971-07-28 15:00:00 TS 24.3659 78.8300 main 0 0 P________PO___ IO061971 24.3488 78.8450 -1 24.3488 78.8450 TC 25 24.4000 78.8000 1 11 275
1971207N22089 1971 81 NI BB NOT_NAMED 1971-07-28 18:00:00 TS 24.4094 78.3505 main 0 0 O________OP___ jtwc_io IO061971 24.4000 78.4000 -1 24.4000 78.4000 TC 25 24.4281 78.2516 1 8 276
1971207N22089 1971 81 NI AS NOT_NAMED 1971-07-28 21:00:00 TS 24.4485 77.9322 main 0 0 P________PP___ IO061971 24.4497 77.9774 -1 24.4497 77.9774 TC 25 24.4463 77.8418 1 7 276
1971207N22089 1971 81 NI AS NOT_NAMED 1971-07-29 00:00:00 TS 24.4888 77.5704 main 0 0 O________OP___ jtwc_io IO061971 24.5000 77.6000 -1 24.5000 77.6000 TC 25 24.4665 77.5111 1 7 277
1971207N22089 1971 81 NI AS NOT_NAMED 1971-07-29 03:00:00 TS 24.5333 77.1950 main 0 0 P________PO___ IO061971 24.5500 77.1925 -1 24.5500 77.1925 TC 25 24.5000 77.2000 1 7 278
1971207N22089 1971 81 NI AS NOT_NAMED 1971-07-29 06:00:00 TS 24.5819 76.8242 main 0 0 O________OP___ jtwc_io IO061971 24.6000 76.8000 -1 24.6000 76.8000 TC 25 24.5548 76.8605 1 7 279
1971207N22089 1971 81 NI AS NOT_NAMED 1971-07-29 09:00:00 TS 24.6403 76.4618 main 0 0 P________PP___ IO061971 24.6501 76.4400 -1 24.6501 76.4400 TC 25 24.6273 76.4908 1 7 281
1971207N22089 1971 81 NI AS NOT_NAMED 1971-07-29 12:00:00 TS 24.7056 76.1003 main 0 0 O________OP___ jtwc_io IO061971 24.7000 76.1000 -1 24.7000 76.1000 TC 25 24.7111 76.1006 1 7 283
1971207N22089 1971 81 NI AS NOT_NAMED 1971-07-29 15:00:00 NR 24.8000 75.7000 main 0 __________O___ IO061971 -1 TC 24.8000 75.7000 1 8 285

IBTrACS Databaseについて

本データベースは、米国NOAAが公開する1842年以降の世界の熱帯低気圧のベストトラックデータアーカイブInternational Best Track Archive for Climate Stewardship (IBTrACS)を、ウェブで閲覧しやすい形式に変換したものです。

最終更新日:2021-11-26